Avisos AEMET Campiña SevillanaAviso Naranja+ INFO
Sevilla, Andalucía, España
Idioma: es English Français Deutsch Italiano Português Español
 

Informes METAR

 

LEZL - Sevilla, Spain
Distancia de la estacin: ENE 8km
Actualizacin: 23/07/2024 10:00
Despejado
Despejado
 Viento de NE
Viento: NE 9 km/h
Temperatura: 28°C
ndice de calor: 28°C
Roco: 16°C
Humedad: 48%
Barmetro: 1018 hPa
Resumen: Despejado
Visibilidad: mayor de 10 km
2024/07/23 08:00 LEZL 230800Z 04005KT 360V070 CAVOK 28/16 Q1018 NOSIG
LEMO - Morn, Spain
Distancia de la estacin: SE 43km
Actualizacin: 23/07/2024 10:00
Despejado
Despejado
 Viento de variable
Viento: variable 2 km/h
Temperatura: 28°C
ndice de calor: 28°C
Roco: 15°C
Humedad: 45%
Barmetro: 1018 hPa
Resumen: Despejado
Visibilidad: mayor de 10 km
2024/07/23 08:00 LEMO 230800Z VRB01KT CAVOK 28/15 Q1018 NOSIG
LEJR - Jerz, Spain
Distancia de la estacin: S 71km
Actualizacin: 23/07/2024 10:00
Despejado
Despejado
 Viento de ENE
Viento: ENE 6 km/h
Temperatura: 30°C
ndice de calor: 29°C
Roco: 15°C
Humedad: 40%
Barmetro: 1017 hPa
Resumen: Despejado
Visibilidad: mayor de 10 km
2024/07/23 08:00 LEJR 230800Z 06003KT 020V110 CAVOK 30/15 Q1017
 
LERT - Rota, Spain
Distancia de la estacin: SSO 89km
Actualizacin: 23/07/2024 10:00
Despejado
Despejado
 Viento de NE
Viento: NE 11 km/h
Temperatura: 28°C
ndice de calor: 29°C
Roco: 18°C
Humedad: 55%
Barmetro: 1017 hPa
Resumen: Despejado
Visibilidad: mayor de 10 km
2024/07/23 08:00 LERT 230800Z 04006KT 010V070 CAVOK 28/18 Q1017 NOSIG
LEMG - Mlaga, Spain
Distancia de la estacin: ESE 157km
Actualizacin: 23/07/2024 10:00
Despejado
Despejado
 Viento de variable
Viento: variable 4 km/h
Temperatura: 27°C
ndice de calor: 28°C
Roco: 17°C
Humedad: 54%
Barmetro: 1020 hPa
Resumen: Despejado
Visibilidad: mayor de 10 km
2024/07/23 08:00 LEMG 230800Z VRB02KT CAVOK 27/17 Q1020 NOSIG
LEBA - Crdoba, Spain
Distancia de la estacin: ENE 115km
Actualizacin: 23/07/2024 10:00
Despejado
Despejado
 Viento de ENE
Viento: ENE 2 km/h
Temperatura: 30°C
Roco: 14°C
Humedad: 38%
Barmetro: 1018 hPa
Resumen: Despejado
Visibilidad: mayor de 10 km
2024/07/23 08:00 LEBA 230800Z 06001KT CAVOK 30/14 Q1018
 
LEGR - Granada, Spain
Distancia de la estacin: E 198km
Actualizacin: 23/07/2024 10:00
Despejado
Despejado
 Viento de variable
Viento: variable 4 km/h
Temperatura: 28°C
ndice de calor: 28°C
Roco: 15°C
Humedad: 45%
Barmetro: 1022 hPa
Resumen: Despejado
Visibilidad: mayor de 10 km
2024/07/23 08:00 LEGR 230800Z VRB02KT CAVOK 28/15 Q1022
LEAM - Almera, Spain
Distancia de la estacin: E 326km
Actualizacin: 23/07/2024 10:00
Despejado
Despejado
 Viento de E
Viento: E 17 km/h
Temperatura: 30°C
Roco: 14°C
Humedad: 38%
Barmetro: 1020 hPa
Resumen: Despejado
Visibilidad: mayor de 10 km
2024/07/23 08:00 LEAM 230800Z 08009KT 050V120 CAVOK 30/14 Q1020
LEMD - Madrid/Barajas, Spain
Distancia de la estacin: NNE 402km
Actualizacin: 23/07/2024 10:00
Despejado
Despejado
 Viento de ONO
Viento: ONO 4 km/h
Temperatura: 27°C
Roco: 10°C
Humedad: 34%
Barmetro: 1022 hPa
Resumen: Despejado
Visibilidad: mayor de 10 km
2024/07/23 08:00 LEMD 230800Z 30002KT CAVOK 27/10 Q1022 NOSIG
 
LEVD - Valladolid, Spain
Distancia de la estacin: N 492km
Actualizacin: 23/07/2024 10:00
Despejado
Despejado
 Viento de E
Viento: E 13 km/h
Temperatura: 23°C
Roco: 12°C
Humedad: 50%
Barmetro: 1024 hPa
Resumen: Despejado
Visibilidad: mayor de 10 km
2024/07/23 08:00 LEVD 230800Z 08007KT 060V120 CAVOK 23/12 Q1024 NOSIG
LEBL - Barcelona, Spain
Distancia de la estacin: NE 816km
Actualizacin: 23/07/2024 10:00
Poco nuboso
Poco nuboso
 Viento de calm
Viento: Calma
Temperatura: 26°C
Roco: 18°C
Humedad: 61%
Barmetro: 1020 hPa
Nubes: Poco nuboso
Visibilidad: 10 km
Detalles de las nubes: Poco nuboso 549 m
2024/07/23 08:00 LEBL 230800Z 00000KT 9999 FEW018 26/18 Q1020 NOSIG
LEVC - Valencia, Spain
Distancia de la estacin: ENE 535km
Actualizacin: 23/07/2024 10:00
Despejado
Despejado
 Viento de variable
Viento: variable 4 km/h
Temperatura: 29°C
ndice de calor: 29°C
Roco: 15°C
Humedad: 43%
Barmetro: 1020 hPa
Resumen: Despejado
Visibilidad: mayor de 10 km
2024/07/23 08:00 LEVC 230800Z VRB02KT CAVOK 29/15 Q1020 NOSIG